sensor_id;sensor_type;location;lat;lon;timestamp;P1;durP1;ratioP1;P2;durP2;ratioP2
4857;SDS011;58975;51.978;8.472;2023-07-13T00:04:52;3.42;;;1.23;;
4857;SDS011;58975;51.978;8.472;2023-07-13T00:09:49;1.80;;;1.38;;
4857;SDS011;58975;51.978;8.472;2023-07-13T00:14:45;1.65;;;1.17;;
4857;SDS011;58975;51.978;8.472;2023-07-13T00:19:42;3.63;;;1.58;;
4857;SDS011;58975;51.978;8.472;2023-07-13T00:24:38;5.18;;;2.17;;
4857;SDS011;58975;51.978;8.472;2023-07-13T00:29:37;4.18;;;1.67;;
4857;SDS011;58975;51.978;8.472;2023-07-13T00:34:34;2.63;;;2.08;;
4857;SDS011;58975;51.978;8.472;2023-07-13T00:39:31;1.63;;;1.52;;
4857;SDS011;58975;51.978;8.472;2023-07-13T00:44:27;4.88;;;1.90;;
4857;SDS011;58975;51.978;8.472;2023-07-13T00:49:25;4.27;;;1.43;;
4857;SDS011;58975;51.978;8.472;2023-07-13T00:54:26;3.60;;;2.33;;
4857;SDS011;58975;51.978;8.472;2023-07-13T00:59:26;3.13;;;2.00;;
4857;SDS011;58975;51.978;8.472;2023-07-13T01:04:26;2.35;;;1.80;;
4857;SDS011;58975;51.978;8.472;2023-07-13T01:09:22;4.70;;;2.25;;
4857;SDS011;58975;51.978;8.472;2023-07-13T01:14:19;3.83;;;1.75;;
4857;SDS011;58975;51.978;8.472;2023-07-13T01:24:32;2.88;;;1.65;;
4857;SDS011;58975;51.978;8.472;2023-07-13T01:29:29;4.03;;;1.92;;
4857;SDS011;58975;51.978;8.472;2023-07-13T01:34:27;2.63;;;1.85;;
4857;SDS011;58975;51.978;8.472;2023-07-13T01:39:24;3.58;;;2.17;;
4857;SDS011;58975;51.978;8.472;2023-07-13T01:44:20;4.30;;;1.63;;
4857;SDS011;58975;51.978;8.472;2023-07-13T01:49:17;3.90;;;2.58;;
4857;SDS011;58975;51.978;8.472;2023-07-13T01:54:13;3.80;;;1.50;;
4857;SDS011;58975;51.978;8.472;2023-07-13T01:59:09;3.45;;;1.75;;
4857;SDS011;58975;51.978;8.472;2023-07-13T02:04:06;2.63;;;1.70;;
4857;SDS011;58975;51.978;8.472;2023-07-13T02:09:02;4.13;;;1.85;;
4857;SDS011;58975;51.978;8.472;2023-07-13T02:13:59;4.70;;;2.35;;
4857;SDS011;58975;51.978;8.472;2023-07-13T02:18:58;2.55;;;1.73;;
4857;SDS011;58975;51.978;8.472;2023-07-13T02:23:54;6.60;;;2.83;;
4857;SDS011;58975;51.978;8.472;2023-07-13T02:28:51;3.40;;;2.00;;
4857;SDS011;58975;51.978;8.472;2023-07-13T02:33:47;2.00;;;1.48;;
4857;SDS011;58975;51.978;8.472;2023-07-13T02:38:44;2.72;;;1.90;;
4857;SDS011;58975;51.978;8.472;2023-07-13T02:43:41;2.65;;;1.95;;
4857;SDS011;58975;51.978;8.472;2023-07-13T02:48:38;4.82;;;1.80;;
4857;SDS011;58975;51.978;8.472;2023-07-13T02:53:35;2.70;;;1.92;;
4857;SDS011;58975;51.978;8.472;2023-07-13T02:58:32;3.90;;;1.83;;
4857;SDS011;58975;51.978;8.472;2023-07-13T03:03:31;3.35;;;1.88;;
4857;SDS011;58975;51.978;8.472;2023-07-13T03:08:28;6.78;;;1.95;;
4857;SDS011;58975;51.978;8.472;2023-07-13T03:13:25;5.38;;;1.80;;
4857;SDS011;58975;51.978;8.472;2023-07-13T03:18:21;8.07;;;2.50;;
4857;SDS011;58975;51.978;8.472;2023-07-13T03:23:18;4.30;;;1.60;;
4857;SDS011;58975;51.978;8.472;2023-07-13T03:28:16;7.35;;;2.30;;
4857;SDS011;58975;51.978;8.472;2023-07-13T03:33:13;7.28;;;2.00;;
4857;SDS011;58975;51.978;8.472;2023-07-13T03:38:09;6.03;;;2.40;;
4857;SDS011;58975;51.978;8.472;2023-07-13T03:43:05;4.93;;;2.50;;
4857;SDS011;58975;51.978;8.472;2023-07-13T03:48:02;6.45;;;1.90;;
4857;SDS011;58975;51.978;8.472;2023-07-13T03:52:59;8.20;;;2.53;;
4857;SDS011;58975;51.978;8.472;2023-07-13T03:58:00;3.78;;;2.00;;
4857;SDS011;58975;51.978;8.472;2023-07-13T04:03:17;6.07;;;2.15;;
4857;SDS011;58975;51.978;8.472;2023-07-13T04:08:13;5.72;;;2.95;;
4857;SDS011;58975;51.978;8.472;2023-07-13T04:13:10;9.52;;;2.65;;
4857;SDS011;58975;51.978;8.472;2023-07-13T04:18:06;5.38;;;2.28;;
4857;SDS011;58975;51.978;8.472;2023-07-13T04:23:03;5.82;;;2.40;;
4857;SDS011;58975;51.978;8.472;2023-07-13T04:28:00;7.80;;;2.55;;
4857;SDS011;58975;51.978;8.472;2023-07-13T04:32:56;8.38;;;3.40;;
4857;SDS011;58975;51.978;8.472;2023-07-13T04:37:53;8.55;;;1.83;;
4857;SDS011;58975;51.978;8.472;2023-07-13T04:42:49;9.73;;;2.25;;
4857;SDS011;58975;51.978;8.472;2023-07-13T04:47:46;3.65;;;2.10;;
4857;SDS011;58975;51.978;8.472;2023-07-13T04:52:43;5.05;;;2.15;;
4857;SDS011;58975;51.978;8.472;2023-07-13T04:57:39;6.93;;;2.03;;
4857;SDS011;58975;51.978;8.472;2023-07-13T05:02:37;6.50;;;2.35;;
4857;SDS011;58975;51.978;8.472;2023-07-13T05:07:35;4.38;;;1.35;;
4857;SDS011;58975;51.978;8.472;2023-07-13T05:12:31;14.32;;;2.00;;
4857;SDS011;58975;51.978;8.472;2023-07-13T05:17:28;6.43;;;1.95;;
4857;SDS011;58975;51.978;8.472;2023-07-13T05:22:24;6.90;;;2.03;;
4857;SDS011;58975;51.978;8.472;2023-07-13T05:27:22;5.50;;;1.93;;
4857;SDS011;58975;51.978;8.472;2023-07-13T05:32:19;5.70;;;2.00;;
4857;SDS011;58975;51.978;8.472;2023-07-13T05:37:16;6.50;;;2.10;;
4857;SDS011;58975;51.978;8.472;2023-07-13T05:42:12;7.38;;;1.95;;
4857;SDS011;58975;51.978;8.472;2023-07-13T05:47:09;10.70;;;3.08;;
4857;SDS011;58975;51.978;8.472;2023-07-13T05:52:05;8.70;;;2.17;;
4857;SDS011;58975;51.978;8.472;2023-07-13T05:57:02;8.00;;;1.50;;
4857;SDS011;58975;51.978;8.472;2023-07-13T06:01:59;6.72;;;1.77;;
4857;SDS011;58975;51.978;8.472;2023-07-13T06:06:55;6.40;;;1.80;;
4857;SDS011;58975;51.978;8.472;2023-07-13T06:11:52;1.75;;;0.98;;
4857;SDS011;58975;51.978;8.472;2023-07-13T06:16:48;6.07;;;1.35;;
4857;SDS011;58975;51.978;8.472;2023-07-13T06:21:45;10.38;;;2.15;;
4857;SDS011;58975;51.978;8.472;2023-07-13T06:26:41;11.68;;;2.95;;
4857;SDS011;58975;51.978;8.472;2023-07-13T06:31:38;9.70;;;1.90;;
4857;SDS011;58975;51.978;8.472;2023-07-13T06:36:34;6.88;;;1.80;;
4857;SDS011;58975;51.978;8.472;2023-07-13T06:41:32;8.85;;;1.80;;
4857;SDS011;58975;51.978;8.472;2023-07-13T06:46:30;14.45;;;2.85;;
4857;SDS011;58975;51.978;8.472;2023-07-13T06:51:26;6.78;;;2.13;;
4857;SDS011;58975;51.978;8.472;2023-07-13T06:56:23;6.28;;;1.98;;
4857;SDS011;58975;51.978;8.472;2023-07-13T07:01:19;10.40;;;2.85;;
4857;SDS011;58975;51.978;8.472;2023-07-13T07:06:17;10.90;;;2.35;;
4857;SDS011;58975;51.978;8.472;2023-07-13T07:11:19;4.88;;;2.00;;
4857;SDS011;58975;51.978;8.472;2023-07-13T07:16:19;8.98;;;2.03;;
4857;SDS011;58975;51.978;8.472;2023-07-13T07:21:16;8.38;;;2.67;;
4857;SDS011;58975;51.978;8.472;2023-07-13T07:26:13;9.07;;;2.53;;
4857;SDS011;58975;51.978;8.472;2023-07-13T07:31:10;11.03;;;2.97;;
4857;SDS011;58975;51.978;8.472;2023-07-13T07:36:09;10.23;;;2.78;;
4857;SDS011;58975;51.978;8.472;2023-07-13T07:41:09;7.85;;;2.85;;
4857;SDS011;58975;51.978;8.472;2023-07-13T07:46:08;7.43;;;2.63;;
4857;SDS011;58975;51.978;8.472;2023-07-13T07:51:06;9.38;;;2.90;;
4857;SDS011;58975;51.978;8.472;2023-07-13T07:56:03;7.97;;;2.88;;
4857;SDS011;58975;51.978;8.472;2023-07-13T08:01:19;5.73;;;2.40;;
4857;SDS011;58975;51.978;8.472;2023-07-13T08:06:19;7.25;;;3.35;;
4857;SDS011;58975;51.978;8.472;2023-07-13T08:11:20;9.80;;;2.33;;
4857;SDS011;58975;51.978;8.472;2023-07-13T08:16:21;7.03;;;2.10;;
4857;SDS011;58975;51.978;8.472;2023-07-13T08:21:18;10.07;;;3.10;;
4857;SDS011;58975;51.978;8.472;2023-07-13T08:26:18;6.40;;;1.73;;
4857;SDS011;58975;51.978;8.472;2023-07-13T08:31:14;6.88;;;2.05;;
4857;SDS011;58975;51.978;8.472;2023-07-13T08:36:11;6.50;;;2.07;;
4857;SDS011;58975;51.978;8.472;2023-07-13T08:41:12;7.20;;;2.28;;
4857;SDS011;58975;51.978;8.472;2023-07-13T08:46:13;6.53;;;2.38;;
4857;SDS011;58975;51.978;8.472;2023-07-13T08:51:41;10.35;;;3.13;;
4857;SDS011;58975;51.978;8.472;2023-07-13T08:56:43;10.45;;;2.13;;
4857;SDS011;58975;51.978;8.472;2023-07-13T09:02:26;5.90;;;1.85;;
4857;SDS011;58975;51.978;8.472;2023-07-13T09:13:02;6.65;;;2.30;;
4857;SDS011;58975;51.978;8.472;2023-07-13T09:18:18;5.25;;;1.60;;
4857;SDS011;58975;51.978;8.472;2023-07-13T09:23:20;8.75;;;2.00;;
4857;SDS011;58975;51.978;8.472;2023-07-13T09:28:20;9.50;;;2.60;;
4857;SDS011;58975;51.978;8.472;2023-07-13T09:33:20;4.68;;;2.95;;
4857;SDS011;58975;51.978;8.472;2023-07-13T09:38:19;4.35;;;2.20;;
4857;SDS011;58975;51.978;8.472;2023-07-13T09:43:19;8.38;;;2.05;;
4857;SDS011;58975;51.978;8.472;2023-07-13T09:48:17;7.18;;;2.03;;
4857;SDS011;58975;51.978;8.472;2023-07-13T09:53:15;5.00;;;1.83;;
4857;SDS011;58975;51.978;8.472;2023-07-13T09:58:17;5.28;;;1.90;;
4857;SDS011;58975;51.978;8.472;2023-07-13T10:03:22;4.10;;;2.38;;
4857;SDS011;58975;51.978;8.472;2023-07-13T10:08:25;7.93;;;2.13;;
4857;SDS011;58975;51.978;8.472;2023-07-13T10:13:25;8.45;;;2.22;;
4857;SDS011;58975;51.978;8.472;2023-07-13T10:18:25;4.28;;;1.92;;
4857;SDS011;58975;51.978;8.472;2023-07-13T10:23:23;4.90;;;2.22;;
4857;SDS011;58975;51.978;8.472;2023-07-13T10:28:31;5.60;;;3.33;;
4857;SDS011;58975;51.978;8.472;2023-07-13T10:33:34;8.35;;;2.45;;
4857;SDS011;58975;51.978;8.472;2023-07-13T10:38:31;6.10;;;2.28;;
4857;SDS011;58975;51.978;8.472;2023-07-13T10:43:29;3.85;;;2.30;;
4857;SDS011;58975;51.978;8.472;2023-07-13T10:48:33;10.77;;;3.63;;
4857;SDS011;58975;51.978;8.472;2023-07-13T10:53:36;6.95;;;3.05;;
4857;SDS011;58975;51.978;8.472;2023-07-13T10:58:40;8.75;;;3.30;;
4857;SDS011;58975;51.978;8.472;2023-07-13T11:08:57;5.57;;;2.83;;
4857;SDS011;58975;51.978;8.472;2023-07-13T11:13:57;4.57;;;2.40;;
4857;SDS011;58975;51.978;8.472;2023-07-13T11:34:31;4.97;;;1.65;;
4857;SDS011;58975;51.978;8.472;2023-07-13T11:39:33;8.02;;;2.67;;
4857;SDS011;58975;51.978;8.472;2023-07-13T11:44:33;4.05;;;1.65;;
4857;SDS011;58975;51.978;8.472;2023-07-13T11:49:31;5.38;;;2.13;;
4857;SDS011;58975;51.978;8.472;2023-07-13T11:54:43;5.47;;;2.00;;
4857;SDS011;58975;51.978;8.472;2023-07-13T11:59:47;5.43;;;1.98;;
4857;SDS011;58975;51.978;8.472;2023-07-13T12:04:43;6.82;;;2.25;;
4857;SDS011;58975;51.978;8.472;2023-07-13T12:09:41;3.50;;;1.83;;
4857;SDS011;58975;51.978;8.472;2023-07-13T12:14:38;4.60;;;1.80;;
4857;SDS011;58975;51.978;8.472;2023-07-13T12:19:34;5.38;;;1.83;;
4857;SDS011;58975;51.978;8.472;2023-07-13T12:24:31;3.65;;;1.60;;
4857;SDS011;58975;51.978;8.472;2023-07-13T12:29:31;4.50;;;2.03;;
4857;SDS011;58975;51.978;8.472;2023-07-13T12:34:29;5.93;;;3.20;;
4857;SDS011;58975;51.978;8.472;2023-07-13T12:44:30;6.78;;;2.40;;
4857;SDS011;58975;51.978;8.472;2023-07-13T12:49:30;5.30;;;2.10;;
4857;SDS011;58975;51.978;8.472;2023-07-13T12:54:31;5.20;;;2.40;;
4857;SDS011;58975;51.978;8.472;2023-07-13T12:59:30;6.28;;;1.80;;
4857;SDS011;58975;51.978;8.472;2023-07-13T13:04:29;3.45;;;1.67;;
4857;SDS011;58975;51.978;8.472;2023-07-13T13:14:23;3.13;;;1.40;;
4857;SDS011;58975;51.978;8.472;2023-07-13T13:19:20;3.00;;;1.40;;
4857;SDS011;58975;51.978;8.472;2023-07-13T13:24:22;2.33;;;1.23;;
4857;SDS011;58975;51.978;8.472;2023-07-13T13:29:21;3.65;;;1.60;;
4857;SDS011;58975;51.978;8.472;2023-07-13T13:34:22;7.00;;;1.80;;
4857;SDS011;58975;51.978;8.472;2023-07-13T13:44:32;5.47;;;1.67;;
4857;SDS011;58975;51.978;8.472;2023-07-13T13:49:29;8.35;;;1.75;;
4857;SDS011;58975;51.978;8.472;2023-07-13T13:54:26;4.60;;;2.00;;
4857;SDS011;58975;51.978;8.472;2023-07-13T13:59:23;2.03;;;1.85;;
4857;SDS011;58975;51.978;8.472;2023-07-13T14:04:21;4.72;;;2.38;;
4857;SDS011;58975;51.978;8.472;2023-07-13T14:09:18;6.40;;;2.58;;
4857;SDS011;58975;51.978;8.472;2023-07-13T14:14:17;9.18;;;2.60;;
4857;SDS011;58975;51.978;8.472;2023-07-13T14:19:16;5.32;;;2.70;;
4857;SDS011;58975;51.978;8.472;2023-07-13T14:24:12;6.18;;;2.78;;
4857;SDS011;58975;51.978;8.472;2023-07-13T14:29:11;5.70;;;2.35;;
4857;SDS011;58975;51.978;8.472;2023-07-13T14:34:11;8.95;;;2.20;;
4857;SDS011;58975;51.978;8.472;2023-07-13T14:44:13;5.32;;;2.38;;
4857;SDS011;58975;51.978;8.472;2023-07-13T14:54:11;5.88;;;2.30;;
4857;SDS011;58975;51.978;8.472;2023-07-13T14:59:08;7.50;;;2.23;;
4857;SDS011;58975;51.978;8.472;2023-07-13T15:04:05;2.45;;;1.83;;
4857;SDS011;58975;51.978;8.472;2023-07-13T15:09:02;3.00;;;1.40;;
4857;SDS011;58975;51.978;8.472;2023-07-13T15:14:00;4.25;;;1.80;;
4857;SDS011;58975;51.978;8.472;2023-07-13T15:18:57;3.78;;;1.73;;
4857;SDS011;58975;51.978;8.472;2023-07-13T15:23:55;3.60;;;2.03;;
4857;SDS011;58975;51.978;8.472;2023-07-13T15:28:51;5.88;;;2.00;;
4857;SDS011;58975;51.978;8.472;2023-07-13T15:33:49;4.82;;;1.55;;
4857;SDS011;58975;51.978;8.472;2023-07-13T15:38:48;1.90;;;1.50;;
4857;SDS011;58975;51.978;8.472;2023-07-13T15:43:47;3.40;;;1.27;;
4857;SDS011;58975;51.978;8.472;2023-07-13T15:48:45;3.80;;;1.55;;
4857;SDS011;58975;51.978;8.472;2023-07-13T15:53:42;2.20;;;1.73;;
4857;SDS011;58975;51.978;8.472;2023-07-13T15:58:38;3.92;;;1.60;;
4857;SDS011;58975;51.978;8.472;2023-07-13T16:03:34;2.50;;;1.38;;
4857;SDS011;58975;51.978;8.472;2023-07-13T16:08:32;1.63;;;1.50;;
4857;SDS011;58975;51.978;8.472;2023-07-13T16:13:29;5.38;;;1.52;;
4857;SDS011;58975;51.978;8.472;2023-07-13T16:18:25;2.95;;;2.00;;
4857;SDS011;58975;51.978;8.472;2023-07-13T16:23:23;2.85;;;1.17;;
4857;SDS011;58975;51.978;8.472;2023-07-13T16:28:19;3.00;;;1.13;;
4857;SDS011;58975;51.978;8.472;2023-07-13T16:33:18;4.18;;;1.23;;
4857;SDS011;58975;51.978;8.472;2023-07-13T16:38:16;4.35;;;1.70;;
4857;SDS011;58975;51.978;8.472;2023-07-13T16:43:18;3.17;;;1.77;;
4857;SDS011;58975;51.978;8.472;2023-07-13T16:48:19;5.35;;;1.52;;
4857;SDS011;58975;51.978;8.472;2023-07-13T16:53:20;2.47;;;1.20;;
4857;SDS011;58975;51.978;8.472;2023-07-13T16:58:18;2.50;;;1.48;;
4857;SDS011;58975;51.978;8.472;2023-07-13T17:03:17;2.85;;;1.20;;
4857;SDS011;58975;51.978;8.472;2023-07-13T17:08:22;4.63;;;1.67;;
4857;SDS011;58975;51.978;8.472;2023-07-13T17:13:21;2.78;;;1.50;;
4857;SDS011;58975;51.978;8.472;2023-07-13T17:18:20;2.15;;;1.35;;
4857;SDS011;58975;51.978;8.472;2023-07-13T17:23:24;2.28;;;1.52;;
4857;SDS011;58975;51.978;8.472;2023-07-13T17:28:22;2.50;;;1.70;;
4857;SDS011;58975;51.978;8.472;2023-07-13T17:38:29;4.75;;;1.60;;
4857;SDS011;58975;51.978;8.472;2023-07-13T17:43:37;3.63;;;1.73;;
4857;SDS011;58975;51.978;8.472;2023-07-13T17:58:29;2.45;;;1.30;;
4857;SDS011;58975;51.978;8.472;2023-07-13T18:03:27;3.50;;;1.88;;
4857;SDS011;58975;51.978;8.472;2023-07-13T18:08:30;3.53;;;1.60;;
4857;SDS011;58975;51.978;8.472;2023-07-13T18:13:29;2.25;;;1.45;;
4857;SDS011;58975;51.978;8.472;2023-07-13T18:18:30;5.47;;;2.05;;
4857;SDS011;58975;51.978;8.472;2023-07-13T18:23:30;2.67;;;1.80;;
4857;SDS011;58975;51.978;8.472;2023-07-13T18:28:29;5.07;;;2.05;;
4857;SDS011;58975;51.978;8.472;2023-07-13T18:33:27;2.67;;;1.70;;
4857;SDS011;58975;51.978;8.472;2023-07-13T18:38:26;2.33;;;1.88;;
4857;SDS011;58975;51.978;8.472;2023-07-13T18:43:24;3.55;;;2.47;;
4857;SDS011;58975;51.978;8.472;2023-07-13T18:48:22;4.00;;;2.28;;
4857;SDS011;58975;51.978;8.472;2023-07-13T18:53:20;7.03;;;3.00;;
4857;SDS011;58975;51.978;8.472;2023-07-13T18:58:17;5.55;;;2.65;;
4857;SDS011;58975;51.978;8.472;2023-07-13T19:03:17;5.38;;;3.15;;
4857;SDS011;58975;51.978;8.472;2023-07-13T19:08:20;5.50;;;2.13;;
4857;SDS011;58975;51.978;8.472;2023-07-13T19:13:22;4.20;;;2.85;;
4857;SDS011;58975;51.978;8.472;2023-07-13T19:18:22;3.60;;;2.60;;
4857;SDS011;58975;51.978;8.472;2023-07-13T19:28:36;7.35;;;2.53;;
4857;SDS011;58975;51.978;8.472;2023-07-13T19:33:35;4.93;;;2.70;;
4857;SDS011;58975;51.978;8.472;2023-07-13T19:38:32;3.30;;;2.63;;
4857;SDS011;58975;51.978;8.472;2023-07-13T19:43:28;6.90;;;3.45;;
4857;SDS011;58975;51.978;8.472;2023-07-13T19:48:25;4.32;;;3.15;;
4857;SDS011;58975;51.978;8.472;2023-07-13T19:53:23;4.93;;;2.70;;
4857;SDS011;58975;51.978;8.472;2023-07-13T19:58:20;6.28;;;2.85;;
4857;SDS011;58975;51.978;8.472;2023-07-13T20:03:16;6.10;;;2.95;;
4857;SDS011;58975;51.978;8.472;2023-07-13T20:08:17;7.63;;;3.70;;
4857;SDS011;58975;51.978;8.472;2023-07-13T20:13:15;3.85;;;3.20;;
4857;SDS011;58975;51.978;8.472;2023-07-13T20:18:17;5.78;;;3.30;;
4857;SDS011;58975;51.978;8.472;2023-07-13T20:28:12;6.53;;;3.70;;
4857;SDS011;58975;51.978;8.472;2023-07-13T20:33:11;6.85;;;2.90;;
4857;SDS011;58975;51.978;8.472;2023-07-13T20:38:14;5.72;;;3.00;;
4857;SDS011;58975;51.978;8.472;2023-07-13T20:43:12;5.43;;;3.53;;
4857;SDS011;58975;51.978;8.472;2023-07-13T20:53:24;5.70;;;3.30;;
4857;SDS011;58975;51.978;8.472;2023-07-13T21:08:23;4.80;;;3.60;;
4857;SDS011;58975;51.978;8.472;2023-07-13T21:13:20;5.68;;;3.20;;
4857;SDS011;58975;51.978;8.472;2023-07-13T21:18:18;5.35;;;4.20;;
4857;SDS011;58975;51.978;8.472;2023-07-13T21:23:23;8.88;;;3.95;;
4857;SDS011;58975;51.978;8.472;2023-07-13T21:28:23;5.97;;;3.15;;
4857;SDS011;58975;51.978;8.472;2023-07-13T21:33:20;7.28;;;3.80;;
4857;SDS011;58975;51.978;8.472;2023-07-13T21:38:21;4.50;;;3.10;;
4857;SDS011;58975;51.978;8.472;2023-07-13T21:43:22;4.93;;;3.67;;
4857;SDS011;58975;51.978;8.472;2023-07-13T21:48:19;6.30;;;2.90;;
4857;SDS011;58975;51.978;8.472;2023-07-13T21:53:30;3.55;;;2.78;;
4857;SDS011;58975;51.978;8.472;2023-07-13T21:58:29;7.25;;;3.05;;
4857;SDS011;58975;51.978;8.472;2023-07-13T22:03:28;7.55;;;3.80;;
4857;SDS011;58975;51.978;8.472;2023-07-13T22:08:28;7.20;;;4.20;;
4857;SDS011;58975;51.978;8.472;2023-07-13T22:13:27;4.03;;;3.30;;
4857;SDS011;58975;51.978;8.472;2023-07-13T22:18:25;4.88;;;3.25;;
4857;SDS011;58975;51.978;8.472;2023-07-13T22:23:36;5.30;;;3.45;;
4857;SDS011;58975;51.978;8.472;2023-07-13T22:28:33;5.33;;;4.20;;
4857;SDS011;58975;51.978;8.472;2023-07-13T22:33:30;9.45;;;4.35;;
4857;SDS011;58975;51.978;8.472;2023-07-13T22:38:28;4.47;;;3.90;;
4857;SDS011;58975;51.978;8.472;2023-07-13T22:43:28;5.55;;;4.07;;
4857;SDS011;58975;51.978;8.472;2023-07-13T22:48:26;10.73;;;4.38;;
4857;SDS011;58975;51.978;8.472;2023-07-13T22:53:25;7.53;;;3.90;;
4857;SDS011;58975;51.978;8.472;2023-07-13T22:58:25;5.70;;;3.40;;
4857;SDS011;58975;51.978;8.472;2023-07-13T23:03:22;7.93;;;4.35;;
4857;SDS011;58975;51.978;8.472;2023-07-13T23:13:17;7.10;;;4.25;;
4857;SDS011;58975;51.978;8.472;2023-07-13T23:18:17;9.10;;;5.40;;
4857;SDS011;58975;51.978;8.472;2023-07-13T23:23:15;6.88;;;4.70;;
4857;SDS011;58975;51.978;8.472;2023-07-13T23:28:13;6.43;;;4.97;;
4857;SDS011;58975;51.978;8.472;2023-07-13T23:38:09;7.28;;;5.45;;
4857;SDS011;58975;51.978;8.472;2023-07-13T23:43:07;10.13;;;6.03;;
4857;SDS011;58975;51.978;8.472;2023-07-13T23:48:04;13.27;;;6.65;;
4857;SDS011;58975;51.978;8.472;2023-07-13T23:53:04;6.25;;;5.15;;
4857;SDS011;58975;51.978;8.472;2023-07-13T23:58:02;9.23;;;6.57;;
